Accedi per prenotare

Caricamento...

Situazione Metar e Taf aeroporto Pisa - Effemeridi Aeroporto Lucca

[Source: ADDS]
METAR
LIRP 020515Z 16002KT 9999 FEW040 SCT070 06/05 Q1006 NOSIG =
LIRP 020500Z 0206/0306 12006KT 9999 BKN030 SCT070 TEMPO 0206/0217 5000 RA BKN030 PROB40 PROB40 TEMPO 0210/0214 3000 TSRA FEW020CB BKN025
TAF
LIRP 020500Z 0206/0306 12006KT 9999 BKN030 SCT070 TEMPO 0206/0217 5000 RA BKN030 PROB40 PROB40 TEMPO 0210/0214 3000 TSRA FEW020CB BKN025 =
SR / SS: 06:32 / 15:46 UTC (Effemeridi LIQL 2020-12-02)